Terminal Aerodrome Forecast
Issued by NWS

Home | Current Version | Previous Version | Text Only | Print | Product List | Glossary On
Versions: 1 2 3 4 5 6 7 8 9 10 11 12 13 14 15 16 17 18
000
FTUS41 KPBZ 032128 AAB
TAFMGW
TAF AMD
KMGW 032128Z 0321/0418 06005KT 2SM -SHRA OVC025
      TEMPO 0321/0322 1/4SM RA FG
     FM032200 03005KT P6SM VCSH BKN025
     FM040000 07005KT 5SM -SHRA BR OVC020
     FM040300 VRB05KT 3SM -SHRA BR OVC007
     FM041500 32006KT P6SM BKN015=

USA.gov is the U.S. government's official web portal to all federal, state and local government web resources and services.